Flight Track Log - Related Links

Times and Time Zones

All times are in EDT time to prevent confusion due to time zone crossing. See the LAN933 flight status page for this flight to view local times or setup timezone preferences in your user account.

Time Position Orientation Groundspeed Altitude Reporting Facility
EDT Latitude Longitude Course Direction KTS MPH feet Rate Location/Type
Mon 04:24:57 PM -32.8100 -68.7910 13° North 169 194 2,900  Level FlightAware ADS-B
Mon 04:25:07 PM -32.8040 -68.7860 35° Northeast 178 205 3,200 968 Climbing FlightAware ADS-B
Mon 04:25:28 PM -32.7990 -68.7760 59° Northeast 189 217 3,400 1,364 Climbing FlightAware ADS-B
Mon 04:25:51 PM -32.7910 -68.7440 73° East 236 272 4,200 2,700 Climbing FlightAware ADS-B
Mon 04:26:28 PM -32.7720 -68.7110 56° Northeast 238 274 6,100 2,886 Climbing FlightAware ADS-B
Mon 04:27:10 PM -32.7340 -68.6700 42° Northeast 269 310 8,000 2,735 Climbing FlightAware ADS-B
Mon 04:27:36 PM -32.7140 -68.6470 44° Northeast 277 319 9,200 3,353 Climbing FlightAware ADS-B
Mon 04:28:18 PM -32.6590 -68.5810 45° Northeast 298 343 11,800 3,509 Climbing FlightAware ADS-B
Mon 04:28:29 PM -32.6530 -68.5640 67° East 290 334 12,300 2,710 Climbing FlightAware ADS-B
Mon 04:28:49 PM -32.6540 -68.5380 93° East 272 313 13,200 3,500 Climbing FlightAware ADS-B
Mon 04:29:05 PM -32.6650 -68.5140 119° Southeast 247 284 14,400 2,892 Climbing FlightAware ADS-B
Mon 04:30:12 PM -32.7270 -68.5140 180° South 232 267 17,200 2,532 Climbing FlightAware ADS-B
Mon 04:30:54 PM -32.7410 -68.5690 253° West 262 302 19,000 1,705 Climbing FlightAware ADS-B
Mon 04:31:40 PM -32.7480 -68.6420 263° West 312 359 19,700 944 Climbing FlightAware ADS-B
Mon 04:32:23 PM -32.7570 -68.7200 262° West 354 407 20,400 1,079 Climbing FlightAware ADS-B
Mon 04:33:09 PM -32.7660 -68.8070 263° West 384 442 21,300 1,553 Climbing FlightAware ADS-B
Mon 04:33:48 PM -32.7750 -68.8970 263° West 395 455 22,600 2,024 Climbing FlightAware ADS-B
Mon 04:34:32 PM -32.7840 -68.9920 264° West 400 460 24,100 1,884 Climbing FlightAware ADS-B
Mon 04:35:14 PM -32.7940 -69.0860 263° West 412 474 25,300 1,823 Climbing FlightAware ADS-B
Mon 04:35:51 PM -32.8020 -69.1620 263° West 413 475 26,500 2,442 Climbing FlightAware ADS-B
Mon 04:36:40 PM -32.8130 -69.2760 263° West 395 455 28,800 2,234 Climbing FlightAware ADS-B
Mon 04:37:25 PM -32.8230 -69.3730 263° West 399 459 30,000 857 Climbing FlightAware ADS-B
Mon 04:38:04 PM -32.8300 -69.4480 264° West 402 463 30,000  Level FlightAware ADS-B
Mon 04:38:41 PM -32.8370 -69.5220 264° West 394 453 30,000  Level FlightAware ADS-B
Mon 04:39:22 PM -32.8470 -69.6230 263° West 397 457 30,000  Level FlightAware ADS-B
Mon 04:40:10 PM -32.8570 -69.7220 263° West 396 456 30,000  Level FlightAware ADS-B
Mon 04:40:46 PM -32.8640 -69.7880 263° West 396 456 30,000  Level FlightAware ADS-B
Mon 04:41:35 PM -32.8730 -69.8780 263° West 396 456 30,000 -2,541 Level FlightAware ADS-B
Mon 04:42:11 PM -32.8810 -69.9740 264° West 379 436 26,400 -3,504 Descending FlightAware ADS-B
Mon 04:43:28 PM -32.8720 -70.1370 274° West 407 468 23,400 -1,440 Descending FlightAware ADS-B
Mon 04:44:16 PM -32.8660 -70.2280 274° West 407 468 23,400  Level FlightAware ADS-B
Mon 04:44:52 PM -32.8610 -70.2960 275° West 407 468 23,400 -2,066 Level FlightAware ADS-B
Mon 04:47:00 PM -32.9356 -70.3642 218° Southwest  Level Estimated
Mon 04:48:00 PM -32.9706 -70.3963 218° Southwest  Level Estimated
Mon 04:49:00 PM -33.0055 -70.4283 218° Southwest  Level Estimated
Mon 04:50:00 PM -33.0405 -70.4604 218° Southwest  Level Estimated
Mon 04:51:00 PM -33.0754 -70.4925 218° Southwest  Level Estimated
Mon 04:52:00 PM -33.1103 -70.5246 218° Southwest  Level Estimated
Mon 04:53:00 PM -33.1453 -70.5568 218° Southwest  Level Estimated
Mon 04:53:19 PM -33.1790 -70.8140 218° Southwest 230 265 4,700  Level FlightAware ADS-B
Mon 04:53:42 PM -33.1980 -70.8130 177° South 203 234 4,700 -737 Level FlightAware ADS-B
Mon 04:54:16 PM -33.2290 -70.8120 178° South 194 223 4,000 -789 Descending FlightAware ADS-B
Mon 04:54:58 PM -33.2630 -70.8090 176° South 189 217 3,700 -833 Descending FlightAware ADS-B
Mon 04:56:04 PM -33.3070 -70.8070 178° South 143 165 2,500 -944 Descending FlightAware ADS-B
Mon 04:56:46 PM -33.3330 -70.8060 178° South 139 160 2,000 -441 Descending FlightAware ADS-B
Mon 04:57:12 PM -33.3480 -70.8050 177° South 139 160 2,000  Level FlightAware ADS-B
Mon 04:58:38 PM -33.3920 -70.8030 178° South -1,395 Descending FlightAware ADS-B
Mon 04:59:38 PM -33.3950 -70.7970 121° Southeast  Level FlightAware ADS-B
Mon 05:02:00 PM -33.3930 -70.7858 244° Southwest  Level Estimated
Mon 05:03:00 PM -33.3930 -70.7858 244° Southwest  Level Estimated
Mon 05:04:00 PM -33.3930 -70.7858 244° Southwest  Level Estimated
Mon 05:05:00 PM -33.3930 -70.7858 244° Southwest  Level Estimated
Mon 05:06:00 PM -33.3930 -70.7858 244° Southwest  Level Estimated
Mon 05:07:00 PM -33.3930 -70.7858 244° Southwest  Level Estimated

Login

Don't have an account? Register now (free) for customized features, flight alerts, and more!